sensor_id;sensor_type;location;lat;lon;timestamp;pressure;altitude;pressure_sealevel;temperature;humidity
16777;BME280;8505;49.456;8.164;2023-05-21T00:02:00;99493.69;;;16.33;74.35
16777;BME280;8505;49.456;8.164;2023-05-21T00:04:29;99500.72;;;16.28;74.73
16777;BME280;8505;49.456;8.164;2023-05-21T00:06:59;99504.63;;;16.25;74.89
16777;BME280;8505;49.456;8.164;2023-05-21T00:09:27;99499.69;;;16.29;74.47
16777;BME280;8505;49.456;8.164;2023-05-21T00:11:55;99494.72;;;16.32;74.59
16777;BME280;8505;49.456;8.164;2023-05-21T00:14:23;99495.72;;;16.38;74.37
16777;BME280;8505;49.456;8.164;2023-05-21T00:16:52;99492.44;;;16.36;74.45
16777;BME280;8505;49.456;8.164;2023-05-21T00:19:20;99490.03;;;16.28;74.46
16777;BME280;8505;49.456;8.164;2023-05-21T00:21:48;99490.06;;;16.21;75.15
16777;BME280;8505;49.456;8.164;2023-05-21T00:24:16;99486.34;;;16.29;74.57
16777;BME280;8505;49.456;8.164;2023-05-21T00:26:44;99481.41;;;16.26;74.57
16777;BME280;8505;49.456;8.164;2023-05-21T00:29:12;99478.56;;;16.21;74.95
16777;BME280;8505;49.456;8.164;2023-05-21T00:31:39;99477.91;;;16.25;74.70
16777;BME280;8505;49.456;8.164;2023-05-21T00:34:09;99473.72;;;16.36;74.65
16777;BME280;8505;49.456;8.164;2023-05-21T00:36:37;99475.22;;;16.25;74.96
16777;BME280;8505;49.456;8.164;2023-05-21T00:39:06;99473.78;;;16.29;74.75
16777;BME280;8505;49.456;8.164;2023-05-21T00:41:34;99483.28;;;16.18;74.95
16777;BME280;8505;49.456;8.164;2023-05-21T00:44:03;99475.72;;;16.15;75.17
16777;BME280;8505;49.456;8.164;2023-05-21T00:46:31;99469.44;;;16.35;74.58
16777;BME280;8505;49.456;8.164;2023-05-21T00:48:59;99464.94;;;16.29;74.83
16777;BME280;8505;49.456;8.164;2023-05-21T00:51:29;99482.06;;;16.21;74.77
16777;BME280;8505;49.456;8.164;2023-05-21T00:53:58;99468.66;;;16.28;74.77
16777;BME280;8505;49.456;8.164;2023-05-21T00:56:26;99465.94;;;16.34;74.54
16777;BME280;8505;49.456;8.164;2023-05-21T00:58:54;99477.09;;;16.25;74.78
16777;BME280;8505;49.456;8.164;2023-05-21T01:01:24;99461.91;;;16.18;75.08
16777;BME280;8505;49.456;8.164;2023-05-21T01:03:53;99473.22;;;16.21;75.16
16777;BME280;8505;49.456;8.164;2023-05-21T01:06:22;99463.66;;;16.38;74.23
16777;BME280;8505;49.456;8.164;2023-05-21T01:08:52;99465.81;;;16.23;74.89
16777;BME280;8505;49.456;8.164;2023-05-21T01:11:25;99466.47;;;16.11;75.34
16777;BME280;8505;49.456;8.164;2023-05-21T01:13:56;99453.72;;;16.13;75.29
16777;BME280;8505;49.456;8.164;2023-05-21T01:16:24;99453.72;;;16.13;75.30
16777;BME280;8505;49.456;8.164;2023-05-21T01:18:52;99446.69;;;16.19;75.27
16777;BME280;8505;49.456;8.164;2023-05-21T01:21:23;99450.03;;;16.14;75.32
16777;BME280;8505;49.456;8.164;2023-05-21T01:23:55;99446.78;;;16.06;75.61
16777;BME280;8505;49.456;8.164;2023-05-21T01:26:22;99439.84;;;15.98;76.16
16777;BME280;8505;49.456;8.164;2023-05-21T01:28:51;99438.59;;;16.01;76.00
16777;BME280;8505;49.456;8.164;2023-05-21T01:31:24;99434.16;;;16.19;75.07
16777;BME280;8505;49.456;8.164;2023-05-21T01:33:55;99431.81;;;16.30;74.39
16777;BME280;8505;49.456;8.164;2023-05-21T01:36:32;99438.84;;;16.24;74.92
16777;BME280;8505;49.456;8.164;2023-05-21T01:39:06;99429.59;;;16.27;74.94
16777;BME280;8505;49.456;8.164;2023-05-21T01:41:37;99427.31;;;16.30;75.05
16777;BME280;8505;49.456;8.164;2023-05-21T01:44:08;99424.25;;;16.27;75.13
16777;BME280;8505;49.456;8.164;2023-05-21T01:46:37;99423.69;;;16.18;75.20
16777;BME280;8505;49.456;8.164;2023-05-21T01:49:07;99423.59;;;16.00;76.07
16777;BME280;8505;49.456;8.164;2023-05-21T01:51:35;99423.34;;;16.39;74.49
16777;BME280;8505;49.456;8.164;2023-05-21T01:54:05;99426.59;;;16.16;75.41
16777;BME280;8505;49.456;8.164;2023-05-21T01:56:32;99419.00;;;16.13;75.15
16777;BME280;8505;49.456;8.164;2023-05-21T01:59:02;99418.66;;;16.35;74.48
16777;BME280;8505;49.456;8.164;2023-05-21T02:01:30;99415.72;;;16.11;75.03
16777;BME280;8505;49.456;8.164;2023-05-21T02:03:58;99410.78;;;15.77;76.81
16777;BME280;8505;49.456;8.164;2023-05-21T02:06:27;99423.81;;;15.98;76.24
16777;BME280;8505;49.456;8.164;2023-05-21T02:08:57;99414.25;;;16.15;75.30
16777;BME280;8505;49.456;8.164;2023-05-21T02:11:26;99414.72;;;16.06;75.91
16777;BME280;8505;49.456;8.164;2023-05-21T02:13:55;99414.84;;;16.17;75.25
16777;BME280;8505;49.456;8.164;2023-05-21T02:16:24;99416.53;;;16.12;75.50
16777;BME280;8505;49.456;8.164;2023-05-21T02:18:52;99422.25;;;16.22;75.22
16777;BME280;8505;49.456;8.164;2023-05-21T02:21:23;99416.66;;;15.92;76.13
16777;BME280;8505;49.456;8.164;2023-05-21T02:23:50;99418.78;;;16.15;75.30
16777;BME280;8505;49.456;8.164;2023-05-21T02:26:18;99417.06;;;15.89;76.32
16777;BME280;8505;49.456;8.164;2023-05-21T02:28:49;99421.22;;;15.85;76.70
16777;BME280;8505;49.456;8.164;2023-05-21T02:31:18;99417.63;;;15.60;77.89
16777;BME280;8505;49.456;8.164;2023-05-21T02:33:48;99408.41;;;15.94;76.55
16777;BME280;8505;49.456;8.164;2023-05-21T02:36:16;99407.44;;;15.88;76.77
16777;BME280;8505;49.456;8.164;2023-05-21T02:38:44;99407.44;;;15.88;76.58
16777;BME280;8505;49.456;8.164;2023-05-21T02:41:13;99407.22;;;15.90;76.65
16777;BME280;8505;49.456;8.164;2023-05-21T02:43:40;99409.13;;;16.14;75.55
16777;BME280;8505;49.456;8.164;2023-05-21T02:46:09;99408.34;;;16.07;75.88
16777;BME280;8505;49.456;8.164;2023-05-21T02:48:37;99412.59;;;16.21;75.45
16777;BME280;8505;49.456;8.164;2023-05-21T02:51:05;99418.00;;;15.70;77.56
16777;BME280;8505;49.456;8.164;2023-05-21T02:53:33;99410.53;;;15.85;76.53
16777;BME280;8505;49.456;8.164;2023-05-21T02:56:00;99416.25;;;15.89;76.85
16777;BME280;8505;49.456;8.164;2023-05-21T02:58:28;99412.22;;;15.80;77.02
16777;BME280;8505;49.456;8.164;2023-05-21T03:00:56;99413.53;;;15.57;77.97
16777;BME280;8505;49.456;8.164;2023-05-21T03:03:25;99414.22;;;15.84;76.57
16777;BME280;8505;49.456;8.164;2023-05-21T03:05:53;99411.31;;;15.92;76.77
16777;BME280;8505;49.456;8.164;2023-05-21T03:08:21;99406.63;;;15.81;76.76
16777;BME280;8505;49.456;8.164;2023-05-21T03:10:50;99408.28;;;15.82;77.08
16777;BME280;8505;49.456;8.164;2023-05-21T03:13:17;99406.06;;;15.79;77.02
16777;BME280;8505;49.456;8.164;2023-05-21T03:15:45;99396.28;;;15.98;76.29
16777;BME280;8505;49.456;8.164;2023-05-21T03:18:13;99402.91;;;15.89;76.57
16777;BME280;8505;49.456;8.164;2023-05-21T03:20:43;99396.09;;;15.93;76.47
16777;BME280;8505;49.456;8.164;2023-05-21T03:23:11;99402.25;;;15.93;76.51
16777;BME280;8505;49.456;8.164;2023-05-21T03:25:42;99392.00;;;15.90;76.35
16777;BME280;8505;49.456;8.164;2023-05-21T03:28:11;99389.56;;;15.89;76.47
16777;BME280;8505;49.456;8.164;2023-05-21T03:30:39;99392.03;;;15.84;76.61
16777;BME280;8505;49.456;8.164;2023-05-21T03:33:07;99398.38;;;15.89;76.69
16777;BME280;8505;49.456;8.164;2023-05-21T03:35:36;99393.66;;;15.91;76.29
16777;BME280;8505;49.456;8.164;2023-05-21T03:38:05;99393.03;;;15.89;76.52
16777;BME280;8505;49.456;8.164;2023-05-21T03:40:33;99390.28;;;16.02;76.23
16777;BME280;8505;49.456;8.164;2023-05-21T03:43:01;99387.00;;;16.00;75.74
16777;BME280;8505;49.456;8.164;2023-05-21T03:45:29;99389.31;;;15.97;76.35
16777;BME280;8505;49.456;8.164;2023-05-21T03:47:56;99387.13;;;16.12;75.50
16777;BME280;8505;49.456;8.164;2023-05-21T03:50:24;99386.75;;;16.08;75.74
16777;BME280;8505;49.456;8.164;2023-05-21T03:52:52;99386.97;;;16.07;75.36
16777;BME280;8505;49.456;8.164;2023-05-21T03:55:21;99384.88;;;16.15;75.40
16777;BME280;8505;49.456;8.164;2023-05-21T03:57:49;99390.91;;;16.04;76.17
16777;BME280;8505;49.456;8.164;2023-05-21T04:00:17;99396.84;;;16.06;75.87
16777;BME280;8505;49.456;8.164;2023-05-21T04:02:45;99395.19;;;16.05;76.08
16777;BME280;8505;49.456;8.164;2023-05-21T04:05:13;99401.41;;;15.99;75.61
16777;BME280;8505;49.456;8.164;2023-05-21T04:07:41;99397.94;;;16.24;75.43
16777;BME280;8505;49.456;8.164;2023-05-21T04:10:11;99401.47;;;16.17;75.49
16777;BME280;8505;49.456;8.164;2023-05-21T04:12:41;99390.28;;;16.02;76.26
16777;BME280;8505;49.456;8.164;2023-05-21T04:15:09;99393.50;;;16.11;75.52
16777;BME280;8505;49.456;8.164;2023-05-21T04:17:37;99399.78;;;15.98;76.04
16777;BME280;8505;49.456;8.164;2023-05-21T04:20:06;99401.56;;;16.36;74.67
16777;BME280;8505;49.456;8.164;2023-05-21T04:22:34;99403.25;;;16.30;75.21
16777;BME280;8505;49.456;8.164;2023-05-21T04:25:03;99400.13;;;16.08;76.09
16777;BME280;8505;49.456;8.164;2023-05-21T04:27:31;99397.16;;;16.23;75.32
16777;BME280;8505;49.456;8.164;2023-05-21T04:30:01;99401.84;;;16.28;75.07
16777;BME280;8505;49.456;8.164;2023-05-21T04:32:29;99406.97;;;16.29;74.94
16777;BME280;8505;49.456;8.164;2023-05-21T04:34:58;99407.97;;;16.35;74.73
16777;BME280;8505;49.456;8.164;2023-05-21T04:37:27;99404.94;;;16.25;75.20
16777;BME280;8505;49.456;8.164;2023-05-21T04:39:57;99407.19;;;16.28;75.18
16777;BME280;8505;49.456;8.164;2023-05-21T04:42:26;99400.38;;;16.32;75.10
16777;BME280;8505;49.456;8.164;2023-05-21T04:44:55;99405.56;;;16.27;75.11
16777;BME280;8505;49.456;8.164;2023-05-21T04:47:26;99402.88;;;16.27;74.98
16777;BME280;8505;49.456;8.164;2023-05-21T04:49:55;99411.84;;;16.39;74.51
16777;BME280;8505;49.456;8.164;2023-05-21T04:52:25;99413.41;;;16.22;75.63
16777;BME280;8505;49.456;8.164;2023-05-21T04:54:53;99414.63;;;16.50;74.34
16777;BME280;8505;49.456;8.164;2023-05-21T04:57:21;99410.84;;;16.33;75.27
16777;BME280;8505;49.456;8.164;2023-05-21T04:59:50;99418.38;;;16.43;74.82
16777;BME280;8505;49.456;8.164;2023-05-21T05:02:18;99417.22;;;16.32;75.37
16777;BME280;8505;49.456;8.164;2023-05-21T05:04:47;99413.91;;;16.37;75.18
16777;BME280;8505;49.456;8.164;2023-05-21T05:07:15;99415.16;;;16.34;75.37
16777;BME280;8505;49.456;8.164;2023-05-21T05:09:43;99412.59;;;16.21;75.80
16777;BME280;8505;49.456;8.164;2023-05-21T05:12:11;99414.44;;;16.21;75.55
16777;BME280;8505;49.456;8.164;2023-05-21T05:14:38;99415.69;;;16.43;74.96
16777;BME280;8505;49.456;8.164;2023-05-21T05:17:06;99416.16;;;16.08;76.52
16777;BME280;8505;49.456;8.164;2023-05-21T05:19:38;99421.34;;;16.35;75.33
16777;BME280;8505;49.456;8.164;2023-05-21T05:22:07;99418.94;;;16.51;74.46
16777;BME280;8505;49.456;8.164;2023-05-21T05:24:38;99415.94;;;16.41;74.81
16777;BME280;8505;49.456;8.164;2023-05-21T05:27:06;99418.16;;;16.44;74.88
16777;BME280;8505;49.456;8.164;2023-05-21T05:29:34;99412.09;;;16.55;74.51
16777;BME280;8505;49.456;8.164;2023-05-21T05:32:02;99407.56;;;16.87;73.14
16777;BME280;8505;49.456;8.164;2023-05-21T05:34:30;99413.13;;;16.86;73.32
16777;BME280;8505;49.456;8.164;2023-05-21T05:36:58;99409.03;;;16.83;73.23
16777;BME280;8505;49.456;8.164;2023-05-21T05:39:29;99409.84;;;16.84;73.30
16777;BME280;8505;49.456;8.164;2023-05-21T05:41:57;99415.38;;;16.89;73.22
16777;BME280;8505;49.456;8.164;2023-05-21T05:44:24;99405.19;;;17.16;71.97
16777;BME280;8505;49.456;8.164;2023-05-21T05:46:52;99408.81;;;17.46;70.60
16777;BME280;8505;49.456;8.164;2023-05-21T05:49:20;99416.44;;;18.09;69.13
16777;BME280;8505;49.456;8.164;2023-05-21T05:51:48;99406.13;;;18.24;68.39
16777;BME280;8505;49.456;8.164;2023-05-21T05:54:16;99412.00;;;18.33;67.63
16777;BME280;8505;49.456;8.164;2023-05-21T05:56:46;99402.56;;;18.00;68.92
16777;BME280;8505;49.456;8.164;2023-05-21T05:59:13;99405.00;;;18.43;67.46
16777;BME280;8505;49.456;8.164;2023-05-21T06:01:41;99405.56;;;18.87;66.18
16777;BME280;8505;49.456;8.164;2023-05-21T06:04:09;99393.25;;;19.26;64.14
16777;BME280;8505;49.456;8.164;2023-05-21T06:06:37;99404.50;;;18.99;65.46
16777;BME280;8505;49.456;8.164;2023-05-21T06:09:05;99399.78;;;19.53;63.26
16777;BME280;8505;49.456;8.164;2023-05-21T06:11:33;99399.56;;;19.55;63.01
16777;BME280;8505;49.456;8.164;2023-05-21T06:14:02;99400.47;;;19.60;63.06
16777;BME280;8505;49.456;8.164;2023-05-21T06:16:30;99410.53;;;19.93;62.64
16777;BME280;8505;49.456;8.164;2023-05-21T06:18:58;99405.16;;;19.82;62.82
16777;BME280;8505;49.456;8.164;2023-05-21T06:21:26;99410.75;;;19.40;63.57
16777;BME280;8505;49.456;8.164;2023-05-21T06:23:54;99407.34;;;19.45;63.56
16777;BME280;8505;49.456;8.164;2023-05-21T06:26:22;99412.16;;;19.54;63.79
16777;BME280;8505;49.456;8.164;2023-05-21T06:28:50;99416.91;;;19.64;63.63
16777;BME280;8505;49.456;8.164;2023-05-21T06:31:19;99422.84;;;20.06;62.10
16777;BME280;8505;49.456;8.164;2023-05-21T06:33:47;99421.34;;;19.70;62.53
16777;BME280;8505;49.456;8.164;2023-05-21T06:36:16;99417.47;;;19.77;62.75
16777;BME280;8505;49.456;8.164;2023-05-21T06:38:44;99417.22;;;19.79;63.07
16777;BME280;8505;49.456;8.164;2023-05-21T06:41:12;99411.56;;;19.92;61.97
16777;BME280;8505;49.456;8.164;2023-05-21T06:43:40;99406.44;;;19.91;62.07
16777;BME280;8505;49.456;8.164;2023-05-21T06:46:08;99402.75;;;19.80;62.57
16777;BME280;8505;49.456;8.164;2023-05-21T06:48:37;99421.16;;;19.36;63.59
16777;BME280;8505;49.456;8.164;2023-05-21T06:51:04;99413.72;;;19.78;63.24
16777;BME280;8505;49.456;8.164;2023-05-21T06:53:32;99414.50;;;19.62;63.29
16777;BME280;8505;49.456;8.164;2023-05-21T06:56:00;99423.94;;;19.42;64.30
16777;BME280;8505;49.456;8.164;2023-05-21T06:58:28;99416.91;;;19.64;63.79
16777;BME280;8505;49.456;8.164;2023-05-21T07:00:56;99413.44;;;19.40;64.46
16777;BME280;8505;49.456;8.164;2023-05-21T07:03:24;99418.34;;;19.55;63.82
16777;BME280;8505;49.456;8.164;2023-05-21T07:05:54;99415.91;;;19.93;63.00
16777;BME280;8505;49.456;8.164;2023-05-21T07:08:22;99415.69;;;19.83;63.08
16777;BME280;8505;49.456;8.164;2023-05-21T07:10:50;99418.28;;;20.06;62.66
16777;BME280;8505;49.456;8.164;2023-05-21T07:13:17;99416.91;;;20.32;61.84
16777;BME280;8505;49.456;8.164;2023-05-21T07:15:45;99408.84;;;20.20;61.81
16777;BME280;8505;49.456;8.164;2023-05-21T07:18:13;99413.59;;;20.58;61.02
16777;BME280;8505;49.456;8.164;2023-05-21T07:20:42;99419.28;;;20.45;61.53
16777;BME280;8505;49.456;8.164;2023-05-21T07:23:11;99416.00;;;19.98;62.65
16777;BME280;8505;49.456;8.164;2023-05-21T07:25:39;99417.59;;;19.71;63.35
16777;BME280;8505;49.456;8.164;2023-05-21T07:28:06;99417.81;;;19.69;63.43
16777;BME280;8505;49.456;8.164;2023-05-21T07:30:34;99422.56;;;19.91;63.34
16777;BME280;8505;49.456;8.164;2023-05-21T07:33:02;99419.22;;;20.00;62.71
16777;BME280;8505;49.456;8.164;2023-05-21T07:35:30;99415.22;;;20.43;61.89
16777;BME280;8505;49.456;8.164;2023-05-21T07:37:58;99410.47;;;20.33;62.12
16777;BME280;8505;49.456;8.164;2023-05-21T07:40:27;99409.81;;;20.76;60.47
16777;BME280;8505;49.456;8.164;2023-05-21T07:42:55;99407.09;;;21.10;59.46
16777;BME280;8505;49.456;8.164;2023-05-21T07:45:23;99402.72;;;20.87;59.72
16777;BME280;8505;49.456;8.164;2023-05-21T07:47:51;99401.91;;;20.86;59.92
16777;BME280;8505;49.456;8.164;2023-05-21T07:50:18;99395.88;;;20.79;60.33
16777;BME280;8505;49.456;8.164;2023-05-21T07:52:46;99404.63;;;20.53;60.90
16777;BME280;8505;49.456;8.164;2023-05-21T07:55:15;99401.75;;;20.59;60.42
16777;BME280;8505;49.456;8.164;2023-05-21T07:57:44;99397.25;;;20.82;60.68
16777;BME280;8505;49.456;8.164;2023-05-21T08:00:13;99392.69;;;21.37;58.88
16777;BME280;8505;49.456;8.164;2023-05-21T08:02:41;99402.47;;;20.88;59.48
16777;BME280;8505;49.456;8.164;2023-05-21T08:05:15;99393.06;;;21.46;57.64
16777;BME280;8505;49.456;8.164;2023-05-21T08:07:43;99402.84;;;21.14;58.06
16777;BME280;8505;49.456;8.164;2023-05-21T08:10:10;99399.31;;;21.30;57.53
16777;BME280;8505;49.456;8.164;2023-05-21T08:12:38;99394.63;;;21.64;57.00
16777;BME280;8505;49.456;8.164;2023-05-21T08:15:08;99392.94;;;21.36;58.32
16777;BME280;8505;49.456;8.164;2023-05-21T08:17:36;99389.91;;;21.98;56.49
16777;BME280;8505;49.456;8.164;2023-05-21T08:20:05;99382.25;;;22.43;55.70
16777;BME280;8505;49.456;8.164;2023-05-21T08:22:33;99381.59;;;22.63;54.43
16777;BME280;8505;49.456;8.164;2023-05-21T08:25:01;99373.50;;;23.00;53.61
16777;BME280;8505;49.456;8.164;2023-05-21T08:27:29;99378.34;;;22.98;52.89
16777;BME280;8505;49.456;8.164;2023-05-21T08:29:56;99383.84;;;23.08;53.52
16777;BME280;8505;49.456;8.164;2023-05-21T08:32:25;99383.47;;;22.94;53.58
16777;BME280;8505;49.456;8.164;2023-05-21T08:34:53;99370.81;;;23.52;51.86
16777;BME280;8505;49.456;8.164;2023-05-21T08:37:21;99375.56;;;23.35;51.96
16777;BME280;8505;49.456;8.164;2023-05-21T08:39:49;99378.09;;;23.52;50.82
16777;BME280;8505;49.456;8.164;2023-05-21T08:42:24;99370.94;;;23.88;50.86
16777;BME280;8505;49.456;8.164;2023-05-21T08:45:04;99369.50;;;23.60;50.35
16777;BME280;8505;49.456;8.164;2023-05-21T08:47:35;99381.78;;;24.08;49.96
16777;BME280;8505;49.456;8.164;2023-05-21T08:50:03;99383.72;;;24.23;49.48
16777;BME280;8505;49.456;8.164;2023-05-21T08:52:31;99380.44;;;24.10;49.88
16777;BME280;8505;49.456;8.164;2023-05-21T08:54:59;99382.03;;;23.96;50.13
16777;BME280;8505;49.456;8.164;2023-05-21T08:57:29;99375.88;;;23.38;50.89
16777;BME280;8505;49.456;8.164;2023-05-21T08:59:58;99382.53;;;23.78;50.16
16777;BME280;8505;49.456;8.164;2023-05-21T09:02:28;99374.81;;;24.42;48.50
16777;BME280;8505;49.456;8.164;2023-05-21T09:04:57;99376.69;;;24.92;48.10
16777;BME280;8505;49.456;8.164;2023-05-21T09:07:30;99367.72;;;25.02;46.58
16777;BME280;8505;49.456;8.164;2023-05-21T09:10:02;99379.94;;;24.74;47.91
16777;BME280;8505;49.456;8.164;2023-05-21T09:12:31;99381.25;;;24.01;48.74
16777;BME280;8505;49.456;8.164;2023-05-21T09:15:00;99377.22;;;25.00;46.64
16777;BME280;8505;49.456;8.164;2023-05-21T09:17:27;99365.47;;;25.34;45.58
16777;BME280;8505;49.456;8.164;2023-05-21T09:20:11;99378.31;;;24.93;46.72
16777;BME280;8505;49.456;8.164;2023-05-21T09:22:41;99376.03;;;25.31;46.64
16777;BME280;8505;49.456;8.164;2023-05-21T09:25:10;99365.28;;;25.75;45.52
16777;BME280;8505;49.456;8.164;2023-05-21T09:27:38;99361.84;;;25.59;45.46
16777;BME280;8505;49.456;8.164;2023-05-21T09:30:09;99372.53;;;25.30;46.20
16777;BME280;8505;49.456;8.164;2023-05-21T09:32:37;99362.44;;;25.46;45.32
16777;BME280;8505;49.456;8.164;2023-05-21T09:35:06;99363.03;;;25.33;45.46
16777;BME280;8505;49.456;8.164;2023-05-21T09:37:39;99361.84;;;25.54;45.75
16777;BME280;8505;49.456;8.164;2023-05-21T09:40:11;99361.81;;;25.69;44.11
16777;BME280;8505;49.456;8.164;2023-05-21T09:42:40;99363.56;;;25.94;44.35
16777;BME280;8505;49.456;8.164;2023-05-21T09:45:09;99357.94;;;26.58;42.24
16777;BME280;8505;49.456;8.164;2023-05-21T09:47:41;99356.81;;;26.65;42.32
16777;BME280;8505;49.456;8.164;2023-05-21T09:50:10;99352.41;;;26.40;42.28
16777;BME280;8505;49.456;8.164;2023-05-21T09:52:39;99353.78;;;25.93;43.35
16777;BME280;8505;49.456;8.164;2023-05-21T09:55:09;99356.03;;;26.25;43.60
16777;BME280;8505;49.456;8.164;2023-05-21T09:57:42;99356.47;;;27.00;42.27
16777;BME280;8505;49.456;8.164;2023-05-21T10:00:16;99353.69;;;26.47;42.88
16777;BME280;8505;49.456;8.164;2023-05-21T10:02:46;99354.63;;;27.19;42.02
16777;BME280;8505;49.456;8.164;2023-05-21T10:05:15;99343.97;;;26.99;41.36
16777;BME280;8505;49.456;8.164;2023-05-21T10:07:48;99344.78;;;27.00;40.57
16777;BME280;8505;49.456;8.164;2023-05-21T10:10:19;99350.13;;;26.52;41.93
16777;BME280;8505;49.456;8.164;2023-05-21T10:12:51;99348.38;;;26.32;42.41
16777;BME280;8505;49.456;8.164;2023-05-21T10:15:22;99349.69;;;26.69;42.13
16777;BME280;8505;49.456;8.164;2023-05-21T10:17:51;99347.19;;;26.43;42.93
16777;BME280;8505;49.456;8.164;2023-05-21T10:20:21;99346.50;;;26.62;42.69
16777;BME280;8505;49.456;8.164;2023-05-21T10:22:50;99344.47;;;26.43;41.64
16777;BME280;8505;49.456;8.164;2023-05-21T10:25:19;99345.53;;;27.05;40.76
16777;BME280;8505;49.456;8.164;2023-05-21T10:27:48;99339.41;;;26.94;40.77
16777;BME280;8505;49.456;8.164;2023-05-21T10:30:17;99343.38;;;26.73;41.40
16777;BME280;8505;49.456;8.164;2023-05-21T10:32:46;99348.09;;;27.20;40.67
16777;BME280;8505;49.456;8.164;2023-05-21T10:35:15;99344.22;;;27.03;40.84
16777;BME280;8505;49.456;8.164;2023-05-21T10:37:43;99347.50;;;27.23;40.73
16777;BME280;8505;49.456;8.164;2023-05-21T10:40:13;99363.13;;;25.77;44.26
16777;BME280;8505;49.456;8.164;2023-05-21T10:42:57;99348.72;;;26.21;44.44
16777;BME280;8505;49.456;8.164;2023-05-21T10:45:39;99353.09;;;26.16;43.43
16777;BME280;8505;49.456;8.164;2023-05-21T10:48:21;99350.16;;;26.08;42.92
16777;BME280;8505;49.456;8.164;2023-05-21T10:51:04;99352.97;;;25.38;45.47
16777;BME280;8505;49.456;8.164;2023-05-21T10:53:46;99350.28;;;25.33;45.18
16777;BME280;8505;49.456;8.164;2023-05-21T10:56:22;99349.28;;;25.78;44.43
16777;BME280;8505;49.456;8.164;2023-05-21T10:59:05;99342.50;;;25.76;44.69
16777;BME280;8505;49.456;8.164;2023-05-21T11:01:36;99341.50;;;26.06;43.26
16777;BME280;8505;49.456;8.164;2023-05-21T11:04:04;99337.41;;;26.47;42.00
16777;BME280;8505;49.456;8.164;2023-05-21T11:06:32;99334.44;;;26.05;42.79
16777;BME280;8505;49.456;8.164;2023-05-21T11:09:01;99340.72;;;26.39;41.94
16777;BME280;8505;49.456;8.164;2023-05-21T11:11:44;99340.88;;;26.53;41.54
16777;BME280;8505;49.456;8.164;2023-05-21T11:14:31;99336.47;;;26.86;41.63
16777;BME280;8505;49.456;8.164;2023-05-21T11:17:02;99344.47;;;26.43;42.61
16777;BME280;8505;49.456;8.164;2023-05-21T11:19:34;99341.31;;;26.65;43.38
16777;BME280;8505;49.456;8.164;2023-05-21T11:22:08;99339.41;;;26.66;43.64
16777;BME280;8505;49.456;8.164;2023-05-21T11:24:37;99338.06;;;26.63;43.52
16777;BME280;8505;49.456;8.164;2023-05-21T11:27:07;99328.22;;;26.67;43.34
16777;BME280;8505;49.456;8.164;2023-05-21T11:29:43;99334.63;;;26.52;43.91
16777;BME280;8505;49.456;8.164;2023-05-21T11:32:13;99327.13;;;26.68;44.45
16777;BME280;8505;49.456;8.164;2023-05-21T11:34:47;99323.09;;;26.37;44.20
16777;BME280;8505;49.456;8.164;2023-05-21T11:37:26;99330.78;;;26.58;44.53
16777;BME280;8505;49.456;8.164;2023-05-21T11:39:57;99331.09;;;25.74;44.90
16777;BME280;8505;49.456;8.164;2023-05-21T11:42:31;99326.72;;;26.22;44.90
16777;BME280;8505;49.456;8.164;2023-05-21T11:45:00;99319.81;;;26.40;43.79
16777;BME280;8505;49.456;8.164;2023-05-21T11:47:29;99322.28;;;25.97;45.38
16777;BME280;8505;49.456;8.164;2023-05-21T11:49:59;99314.88;;;27.00;43.11
16777;BME280;8505;49.456;8.164;2023-05-21T11:52:28;99323.78;;;26.52;43.76
16777;BME280;8505;49.456;8.164;2023-05-21T11:54:56;99312.69;;;25.71;46.22
16777;BME280;8505;49.456;8.164;2023-05-21T11:57:26;99313.84;;;26.67;44.50
16777;BME280;8505;49.456;8.164;2023-05-21T12:00:00;99321.97;;;26.72;44.49
16777;BME280;8505;49.456;8.164;2023-05-21T12:02:36;99311.75;;;27.11;42.97
16777;BME280;8505;49.456;8.164;2023-05-21T12:05:05;99313.00;;;25.64;46.20
16777;BME280;8505;49.456;8.164;2023-05-21T12:07:35;99323.66;;;26.63;43.84
16777;BME280;8505;49.456;8.164;2023-05-21T12:10:05;99318.94;;;27.02;42.92
16777;BME280;8505;49.456;8.164;2023-05-21T12:12:33;99313.50;;;27.45;41.66
16777;BME280;8505;49.456;8.164;2023-05-21T12:15:18;99311.94;;;27.81;41.03
16777;BME280;8505;49.456;8.164;2023-05-21T12:17:48;99310.16;;;27.29;41.56
16777;BME280;8505;49.456;8.164;2023-05-21T12:20:18;99303.63;;;27.30;41.99
16777;BME280;8505;49.456;8.164;2023-05-21T12:22:47;99312.25;;;27.37;41.75
16777;BME280;8505;49.456;8.164;2023-05-21T12:25:16;99304.00;;;27.42;42.34
16777;BME280;8505;49.456;8.164;2023-05-21T12:27:45;99307.09;;;27.35;40.97
16777;BME280;8505;49.456;8.164;2023-05-21T12:30:13;99310.81;;;28.01;39.61
16777;BME280;8505;49.456;8.164;2023-05-21T12:32:43;99302.94;;;28.18;39.10
16777;BME280;8505;49.456;8.164;2023-05-21T12:35:19;99304.13;;;27.74;40.84
16777;BME280;8505;49.456;8.164;2023-05-21T12:37:48;99304.59;;;27.63;40.95
16777;BME280;8505;49.456;8.164;2023-05-21T12:40:17;99303.84;;;27.76;40.35
16777;BME280;8505;49.456;8.164;2023-05-21T12:42:45;99298.84;;;27.41;41.01
16777;BME280;8505;49.456;8.164;2023-05-21T12:45:13;99300.31;;;27.57;40.22
16777;BME280;8505;49.456;8.164;2023-05-21T12:47:47;99295.31;;;28.01;39.82
16777;BME280;8505;49.456;8.164;2023-05-21T12:50:21;99296.59;;;28.23;39.76
16777;BME280;8505;49.456;8.164;2023-05-21T12:52:52;99294.97;;;28.03;39.84
16777;BME280;8505;49.456;8.164;2023-05-21T12:55:22;99299.94;;;28.01;39.75
16777;BME280;8505;49.456;8.164;2023-05-21T12:58:00;99293.91;;;28.36;39.05
16777;BME280;8505;49.456;8.164;2023-05-21T13:00:28;99299.56;;;28.26;39.10
16777;BME280;8505;49.456;8.164;2023-05-21T13:02:57;99298.97;;;28.43;39.20
16777;BME280;8505;49.456;8.164;2023-05-21T13:05:26;99294.53;;;27.40;41.07
16777;BME280;8505;49.456;8.164;2023-05-21T13:07:54;99295.59;;;27.81;40.63
16777;BME280;8505;49.456;8.164;2023-05-21T13:10:22;99294.97;;;27.47;41.69
16777;BME280;8505;49.456;8.164;2023-05-21T13:12:49;99286.34;;;27.82;41.06
16777;BME280;8505;49.456;8.164;2023-05-21T13:15:18;99291.63;;;27.73;41.60
16777;BME280;8505;49.456;8.164;2023-05-21T13:17:45;99292.63;;;27.40;41.95
16777;BME280;8505;49.456;8.164;2023-05-21T13:20:18;99286.53;;;28.04;40.63
16777;BME280;8505;49.456;8.164;2023-05-21T13:22:48;99292.44;;;27.93;40.48